Christmas Valley, Oregon
Current Conditions -  °F | °C
As of 1:35 AM on Saturday 25 Oct 2014 (Local Time) from KBDN Reporting Station
Haze Haze  
Wind Chill: 45°   Ceiling: 300
Heat Index: 45°   Visibility: 6mi
Dew Point: 45°   Wind: 0mph
Humidity: 100%   Direction: NA
Pressure: 29.78"   Gusts: NA
Location:  43.24°N, 120.54°W
Report Text: KBDN 250835Z AUTO 00000KT 6SM BR OVC003 07/07 A2978 RMK AO2
Loading
Personal Weather Stations






























Interactive Weather Map
Tropical Storm Tracking
New forecast layout! Learn more

10-Day Weather Forecast

Advertisements
Track Severe Weather on mobile